sensor_id;sensor_type;location;lat;lon;timestamp;P1;durP1;ratioP1;P2;durP2;ratioP2
65086;SDS011;52094;51.234;-2.310;2022-07-23T00:03:52;4.38;;;2.25;;
65086;SDS011;52094;51.234;-2.310;2022-07-23T00:08:16;4.40;;;2.28;;
65086;SDS011;52094;51.234;-2.310;2022-07-23T00:12:09;5.88;;;2.10;;
65086;SDS011;52094;51.234;-2.310;2022-07-23T03:23:11;5.47;;;2.60;;
65086;SDS011;52094;51.234;-2.310;2022-07-23T03:28:00;5.65;;;2.58;;
65086;SDS011;52094;51.234;-2.310;2022-07-23T03:33:08;5.50;;;2.88;;
65086;SDS011;52094;51.234;-2.310;2022-07-23T03:37:59;6.43;;;3.40;;
65086;SDS011;52094;51.234;-2.310;2022-07-23T06:53:58;5.22;;;2.03;;
65086;SDS011;52094;51.234;-2.310;2022-07-23T07:02:18;4.10;;;2.13;;
65086;SDS011;52094;51.234;-2.310;2022-07-23T07:06:25;4.68;;;2.38;;
65086;SDS011;52094;51.234;-2.310;2022-07-23T07:10:22;4.30;;;2.00;;
65086;SDS011;52094;51.234;-2.310;2022-07-23T07:14:05;4.10;;;2.13;;
65086;SDS011;52094;51.234;-2.310;2022-07-23T07:17:49;4.53;;;2.15;;
65086;SDS011;52094;51.234;-2.310;2022-07-23T07:26:52;4.00;;;2.20;;
65086;SDS011;52094;51.234;-2.310;2022-07-23T07:31:24;4.05;;;2.08;;
65086;SDS011;52094;51.234;-2.310;2022-07-23T07:44:40;4.03;;;1.80;;
65086;SDS011;52094;51.234;-2.310;2022-07-23T07:48:31;3.67;;;1.70;;
65086;SDS011;52094;51.234;-2.310;2022-07-23T07:52:46;4.53;;;1.90;;
65086;SDS011;52094;51.234;-2.310;2022-07-23T07:57:04;3.83;;;1.50;;
65086;SDS011;52094;51.234;-2.310;2022-07-23T08:00:49;2.63;;;1.40;;
65086;SDS011;52094;51.234;-2.310;2022-07-23T08:04:34;3.72;;;1.70;;
65086;SDS011;52094;51.234;-2.310;2022-07-23T08:08:19;3.28;;;1.50;;
65086;SDS011;52094;51.234;-2.310;2022-07-23T08:22:41;3.08;;;1.30;;
65086;SDS011;52094;51.234;-2.310;2022-07-23T08:27:32;2.53;;;1.30;;
65086;SDS011;52094;51.234;-2.310;2022-07-23T08:31:28;2.10;;;1.10;;
65086;SDS011;52094;51.234;-2.310;2022-07-23T08:35:42;1.80;;;0.93;;
65086;SDS011;52094;51.234;-2.310;2022-07-23T08:39:48;2.47;;;1.10;;
65086;SDS011;52094;51.234;-2.310;2022-07-23T08:57:54;1.95;;;1.00;;
65086;SDS011;52094;51.234;-2.310;2022-07-23T09:07:12;2.78;;;1.20;;
65086;SDS011;52094;51.234;-2.310;2022-07-23T09:19:07;2.13;;;1.10;;
65086;SDS011;52094;51.234;-2.310;2022-07-23T09:23:20;1.65;;;0.80;;
65086;SDS011;52094;51.234;-2.310;2022-07-23T09:27:26;1.40;;;0.77;;
65086;SDS011;52094;51.234;-2.310;2022-07-23T09:32:26;1.63;;;0.90;;
65086;SDS011;52094;51.234;-2.310;2022-07-23T09:36:13;1.80;;;0.80;;
65086;SDS011;52094;51.234;-2.310;2022-07-23T09:40:17;1.25;;;0.80;;
65086;SDS011;52094;51.234;-2.310;2022-07-23T09:48:57;1.27;;;0.88;;
65086;SDS011;52094;51.234;-2.310;2022-07-23T09:52:55;1.60;;;1.00;;
65086;SDS011;52094;51.234;-2.310;2022-07-23T10:02:40;2.05;;;1.00;;
65086;SDS011;52094;51.234;-2.310;2022-07-23T10:06:37;1.83;;;1.02;;
65086;SDS011;52094;51.234;-2.310;2022-07-23T10:10:35;1.48;;;0.98;;
65086;SDS011;52094;51.234;-2.310;2022-07-23T10:14:45;1.42;;;1.08;;
65086;SDS011;52094;51.234;-2.310;2022-07-23T10:18:50;2.22;;;1.20;;
65086;SDS011;52094;51.234;-2.310;2022-07-23T10:22:42;2.42;;;1.20;;
65086;SDS011;52094;51.234;-2.310;2022-07-23T10:44:13;2.20;;;1.20;;
65086;SDS011;52094;51.234;-2.310;2022-07-23T10:48:21;3.22;;;1.30;;
65086;SDS011;52094;51.234;-2.310;2022-07-23T10:52:37;3.15;;;1.40;;
65086;SDS011;52094;51.234;-2.310;2022-07-23T11:06:14;3.28;;;1.30;;
65086;SDS011;52094;51.234;-2.310;2022-07-23T11:24:50;2.53;;;1.42;;
65086;SDS011;52094;51.234;-2.310;2022-07-23T11:38:21;2.95;;;1.58;;
65086;SDS011;52094;51.234;-2.310;2022-07-23T12:02:12;2.83;;;1.15;;
65086;SDS011;52094;51.234;-2.310;2022-07-23T12:07:10;2.25;;;1.40;;
65086;SDS011;52094;51.234;-2.310;2022-07-23T12:15:49;3.08;;;1.40;;
65086;SDS011;52094;51.234;-2.310;2022-07-23T12:25:35;2.78;;;1.38;;
65086;SDS011;52094;51.234;-2.310;2022-07-23T12:29:53;2.72;;;1.35;;
65086;SDS011;52094;51.234;-2.310;2022-07-23T12:43:22;2.95;;;1.45;;
65086;SDS011;52094;51.234;-2.310;2022-07-23T12:48:03;3.00;;;1.67;;
65086;SDS011;52094;51.234;-2.310;2022-07-23T12:56:44;3.35;;;1.63;;
65086;SDS011;52094;51.234;-2.310;2022-07-23T13:11:21;4.45;;;1.80;;
65086;SDS011;52094;51.234;-2.310;2022-07-23T13:19:39;3.33;;;1.80;;
65086;SDS011;52094;51.234;-2.310;2022-07-23T13:23:42;4.05;;;1.80;;
65086;SDS011;52094;51.234;-2.310;2022-07-23T13:33:28;2.60;;;1.60;;
65086;SDS011;52094;51.234;-2.310;2022-07-23T13:37:57;3.22;;;1.60;;
65086;SDS011;52094;51.234;-2.310;2022-07-23T13:42:08;4.07;;;1.60;;
65086;SDS011;52094;51.234;-2.310;2022-07-23T13:55:41;3.75;;;1.88;;
65086;SDS011;52094;51.234;-2.310;2022-07-23T14:13:41;4.90;;;2.20;;
65086;SDS011;52094;51.234;-2.310;2022-07-23T14:31:16;3.92;;;2.38;;
65086;SDS011;52094;51.234;-2.310;2022-07-23T14:35:47;5.15;;;2.60;;
65086;SDS011;52094;51.234;-2.310;2022-07-23T15:05:32;4.78;;;2.50;;
65086;SDS011;52094;51.234;-2.310;2022-07-23T15:13:38;4.97;;;2.50;;
65086;SDS011;52094;51.234;-2.310;2022-07-23T15:34:23;5.38;;;2.60;;
65086;SDS011;52094;51.234;-2.310;2022-07-23T15:38:37;4.60;;;2.60;;
65086;SDS011;52094;51.234;-2.310;2022-07-23T15:42:36;5.28;;;2.50;;
65086;SDS011;52094;51.234;-2.310;2022-07-23T15:46:47;7.78;;;2.88;;
65086;SDS011;52094;51.234;-2.310;2022-07-23T15:55:31;5.18;;;2.47;;
65086;SDS011;52094;51.234;-2.310;2022-07-23T16:00:00;5.63;;;2.70;;
65086;SDS011;52094;51.234;-2.310;2022-07-23T16:04:05;6.00;;;2.80;;
65086;SDS011;52094;51.234;-2.310;2022-07-23T16:08:15;3.95;;;2.22;;
65086;SDS011;52094;51.234;-2.310;2022-07-23T16:12:54;7.25;;;2.50;;
65086;SDS011;52094;51.234;-2.310;2022-07-23T16:17:09;4.57;;;2.60;;
65086;SDS011;52094;51.234;-2.310;2022-07-23T16:21:13;4.72;;;2.42;;
65086;SDS011;52094;51.234;-2.310;2022-07-23T16:25:16;5.10;;;2.60;;
65086;SDS011;52094;51.234;-2.310;2022-07-23T16:38:40;5.30;;;2.80;;
65086;SDS011;52094;51.234;-2.310;2022-07-23T16:42:58;5.07;;;2.67;;
65086;SDS011;52094;51.234;-2.310;2022-07-23T16:51:37;5.07;;;2.60;;
65086;SDS011;52094;51.234;-2.310;2022-07-23T16:56:31;4.63;;;2.78;;
65086;SDS011;52094;51.234;-2.310;2022-07-23T17:00:22;4.50;;;2.40;;
65086;SDS011;52094;51.234;-2.310;2022-07-23T17:04:13;5.07;;;2.60;;
65086;SDS011;52094;51.234;-2.310;2022-07-23T17:08:22;4.57;;;2.20;;
65086;SDS011;52094;51.234;-2.310;2022-07-23T17:12:11;8.68;;;2.90;;
65086;SDS011;52094;51.234;-2.310;2022-07-23T17:16:10;5.20;;;2.70;;
65086;SDS011;52094;51.234;-2.310;2022-07-23T17:24:46;5.68;;;2.88;;
65086;SDS011;52094;51.234;-2.310;2022-07-23T17:28:49;6.55;;;2.53;;
65086;SDS011;52094;51.234;-2.310;2022-07-23T17:33:05;5.78;;;2.80;;
65086;SDS011;52094;51.234;-2.310;2022-07-23T17:36:57;5.45;;;2.65;;
65086;SDS011;52094;51.234;-2.310;2022-07-23T17:40:44;7.75;;;2.65;;
65086;SDS011;52094;51.234;-2.310;2022-07-23T17:44:43;5.40;;;2.53;;
65086;SDS011;52094;51.234;-2.310;2022-07-23T17:49:15;5.97;;;2.60;;
65086;SDS011;52094;51.234;-2.310;2022-07-23T17:53:08;4.93;;;2.63;;
65086;SDS011;52094;51.234;-2.310;2022-07-23T17:57:03;5.65;;;2.78;;
65086;SDS011;52094;51.234;-2.310;2022-07-23T18:00:57;5.15;;;3.05;;
65086;SDS011;52094;51.234;-2.310;2022-07-23T18:04:42;5.85;;;3.00;;
65086;SDS011;52094;51.234;-2.310;2022-07-23T18:08:28;5.55;;;2.78;;
65086;SDS011;52094;51.234;-2.310;2022-07-23T18:12:17;5.07;;;2.57;;
65086;SDS011;52094;51.234;-2.310;2022-07-23T18:16:17;7.00;;;3.20;;
65086;SDS011;52094;51.234;-2.310;2022-07-23T18:20:04;4.68;;;2.67;;
65086;SDS011;52094;51.234;-2.310;2022-07-23T18:24:13;5.53;;;3.20;;
65086;SDS011;52094;51.234;-2.310;2022-07-23T18:28:51;5.45;;;3.20;;
65086;SDS011;52094;51.234;-2.310;2022-07-23T18:33:35;7.30;;;3.25;;
65086;SDS011;52094;51.234;-2.310;2022-07-23T18:37:36;7.87;;;3.10;;
65086;SDS011;52094;51.234;-2.310;2022-07-23T18:41:29;6.80;;;3.17;;
65086;SDS011;52094;51.234;-2.310;2022-07-23T18:46:07;6.10;;;2.90;;
65086;SDS011;52094;51.234;-2.310;2022-07-23T18:50:21;6.07;;;2.63;;
65086;SDS011;52094;51.234;-2.310;2022-07-23T18:54:35;6.40;;;2.83;;
65086;SDS011;52094;51.234;-2.310;2022-07-23T18:58:30;5.07;;;2.70;;
65086;SDS011;52094;51.234;-2.310;2022-07-23T19:02:50;4.50;;;2.45;;
65086;SDS011;52094;51.234;-2.310;2022-07-23T19:07:36;4.15;;;2.42;;
65086;SDS011;52094;51.234;-2.310;2022-07-23T19:11:30;7.00;;;2.72;;
65086;SDS011;52094;51.234;-2.310;2022-07-23T19:15:46;6.30;;;2.97;;
65086;SDS011;52094;51.234;-2.310;2022-07-23T19:20:12;6.28;;;3.20;;
65086;SDS011;52094;51.234;-2.310;2022-07-23T19:24:20;5.57;;;2.80;;
65086;SDS011;52094;51.234;-2.310;2022-07-23T19:28:31;4.85;;;3.00;;
65086;SDS011;52094;51.234;-2.310;2022-07-23T19:32:50;5.95;;;3.08;;
65086;SDS011;52094;51.234;-2.310;2022-07-23T19:37:35;5.75;;;2.78;;
65086;SDS011;52094;51.234;-2.310;2022-07-23T19:41:25;8.95;;;3.15;;
65086;SDS011;52094;51.234;-2.310;2022-07-23T19:45:34;5.40;;;3.03;;
65086;SDS011;52094;51.234;-2.310;2022-07-23T19:49:41;7.88;;;3.20;;
65086;SDS011;52094;51.234;-2.310;2022-07-23T19:53:55;7.03;;;3.30;;
65086;SDS011;52094;51.234;-2.310;2022-07-23T19:59:05;6.78;;;3.10;;
65086;SDS011;52094;51.234;-2.310;2022-07-23T20:08:42;6.15;;;3.20;;
65086;SDS011;52094;51.234;-2.310;2022-07-23T20:12:28;6.63;;;3.10;;
65086;SDS011;52094;51.234;-2.310;2022-07-23T20:16:56;6.15;;;3.13;;
65086;SDS011;52094;51.234;-2.310;2022-07-23T20:20:55;6.78;;;3.08;;
65086;SDS011;52094;51.234;-2.310;2022-07-23T20:25:14;5.80;;;3.08;;
65086;SDS011;52094;51.234;-2.310;2022-07-23T20:29:32;6.75;;;3.00;;
65086;SDS011;52094;51.234;-2.310;2022-07-23T20:33:45;4.40;;;2.80;;
65086;SDS011;52094;51.234;-2.310;2022-07-23T20:42:08;7.30;;;3.20;;
65086;SDS011;52094;51.234;-2.310;2022-07-23T20:51:18;9.32;;;3.40;;
65086;SDS011;52094;51.234;-2.310;2022-07-23T21:01:15;6.80;;;3.53;;
65086;SDS011;52094;51.234;-2.310;2022-07-23T21:09:46;11.57;;;3.40;;
65086;SDS011;52094;51.234;-2.310;2022-07-23T21:14:27;7.18;;;3.10;;
65086;SDS011;52094;51.234;-2.310;2022-07-23T21:27:57;4.75;;;2.88;;
65086;SDS011;52094;51.234;-2.310;2022-07-23T21:32:31;7.95;;;3.30;;
65086;SDS011;52094;51.234;-2.310;2022-07-23T21:36:51;8.07;;;3.60;;
65086;SDS011;52094;51.234;-2.310;2022-07-23T21:46:12;7.45;;;3.63;;
65086;SDS011;52094;51.234;-2.310;2022-07-23T21:54:38;6.60;;;3.35;;
65086;SDS011;52094;51.234;-2.310;2022-07-23T21:58:56;7.60;;;3.92;;
65086;SDS011;52094;51.234;-2.310;2022-07-23T22:03:00;7.43;;;3.60;;
65086;SDS011;52094;51.234;-2.310;2022-07-23T22:11:23;7.40;;;3.42;;
65086;SDS011;52094;51.234;-2.310;2022-07-23T22:34:51;8.02;;;3.47;;
65086;SDS011;52094;51.234;-2.310;2022-07-23T22:38:53;6.50;;;3.42;;
65086;SDS011;52094;51.234;-2.310;2022-07-23T22:56:39;7.32;;;3.45;;
65086;SDS011;52094;51.234;-2.310;2022-07-23T23:01:03;8.30;;;3.20;;
65086;SDS011;52094;51.234;-2.310;2022-07-23T23:04:53;8.13;;;3.20;;
65086;SDS011;52094;51.234;-2.310;2022-07-23T23:12:54;7.93;;;3.65;;
65086;SDS011;52094;51.234;-2.310;2022-07-23T23:17:47;7.97;;;3.42;;
65086;SDS011;52094;51.234;-2.310;2022-07-23T23:22:13;6.47;;;3.15;;
65086;SDS011;52094;51.234;-2.310;2022-07-23T23:25:55;7.70;;;3.55;;
65086;SDS011;52094;51.234;-2.310;2022-07-23T23:29:49;7.30;;;3.22;;
65086;SDS011;52094;51.234;-2.310;2022-07-23T23:33:34;8.50;;;3.40;;
65086;SDS011;52094;51.234;-2.310;2022-07-23T23:37:22;6.32;;;3.47;;
65086;SDS011;52094;51.234;-2.310;2022-07-23T23:41:43;6.97;;;3.17;;
65086;SDS011;52094;51.234;-2.310;2022-07-23T23:45:50;8.07;;;3.60;;
65086;SDS011;52094;51.234;-2.310;2022-07-23T23:59:54;6.35;;;3.42;;
